Hauptseite
METAR-TAF:

METAR-TAF

Flughäfen :

Militärflugplatz Salon-de-Provence

Salon-de-Provence, Frankreich

Breite: 43-36N, Länge: 005-06E, Höhe: 59 m

Beobachtung

Neuester Wetterbericht von vor 31 Minuten, um 18:30 UTC
Wind 4 kt aus Süd/Südwest
Temperatur 26°C
Luftfeuchtigkeit 51%
Luftdruck 1016 hPa
Sichtweite 10 km oder mehr

METAR: LFMY 061830Z AUTO 21004KT 9999 // NSC 26/15 Q1016

Zeit: 21:01 (19:01 UTC)

Prognose

Neuester Wetterbericht von vor 5 Stunden und 1 Minuten, um 14:00 UTC
Gültige Prognose vom 06 um 15 UTC bis 07 um 15 UTC
Wind 10 kt aus Süd/Südwest
Sichtweite 10 km oder mehr
keine Wolken unter 1500 m und keine Kumulonimbus oder Gewitterwolken
Übergehend zu
vom 06 um 19 UTC bis 06 um 21 UTC
Wind 2 kt aus unterschiedlichen Richtungen
Übergehend zu
vom 07 um 11 UTC bis 07 um 13 UTC
Wind 10 kt aus Süd/Südwest

TAF: LFMY 061400Z 0615/0715 21010KT CAVOK BECMG 0619/0621 VRB02KT BECMG 0711/0713 20010KT

Wetterbeobachtungen und Prognosen von mehr als 4000 Flughäfen (METAR und TAF Bericht).

Die verfügbaren Stationen werden durch gelbe und rote Markierungen auf der Karte dargestellt.

Führen Sie die Maus auf sie, um den Namen der Station zu sehen.

Darauf klicken, um die Beobachtung von Wetterbeobachtungen und Prognosen zu sehen.

Um die Karte zu ändern : klicken Sie auf den grünen Tasten mit einem schwarzen Kreuz Zum Vergrößern, auf den grünen Button mit einem Gedankenstrich zu verkleinern, oder auf die grünen Pfeile für benachbarte Karten.


METAR-TAF: